Woodland, CA

12:45 PM PDT am 28. April 2015 (GMT -0700)
Mather | | Change Station
CLOSE
Current Station
Flughafen
Location: Mather AFB,
Höhe: 95 ft
Wetterstationen in der Umgebung

Höhe 95 ft 38.56 °N, 121.30 °W | Updated 1 hour ago

Heiter
Heiter
73 °F
gefühlte 73 °F
N
9
Wind Wechselnd Wind aus Südwest

Heute
Max. -- | schwach -- °F
--% Regenrisiko
Gestern
Max. -- | schwach -- °F
Precip. -- inch
6:13 AM 7:56 PM
Zweites Viertel, 76% visible
Druck 30.00 inch
Sichtweite 10.0 Meilen
Wolken Few 20000 ft
Taupunkt 54 °F
Feuchtigkeit 50%
Regen 0.00 inch
Schneehöhe Nicht verfügbar..
UV 9 von 12
Pollen 8.10 von 12
Luftqualität Nicht verfügbar..
Flu Activity Sporadic
METAR KMHR 281845Z 23008KT 10SM FEW200 23/12 A3000

More Conditions Fewer Conditions

Druck 30.00 inch
Sichtweite 10.0 Meilen
Wolken Few 20000 ft
Taupunkt 54 °F
Feuchtigkeit 50%
Regen 0.00 inch
Schneehöhe Nicht verfügbar..
UV 9 von 12
Pollen 8.10 von 12
Luftqualität Nicht verfügbar..
Flu Activity Sporadic
METAR KMHR 281845Z 23008KT 10SM FEW200 23/12 A3000

More Conditions Fewer Conditions

10-Day Weather Forecast

Almanac

Astronomie

Apr. 28, 2015 Aufgang Untergang
Genaue Zeit
Bürgerliche Dämmerung
Nautische Dämmerung
Astronomische Dämmerung
Mond
Länge des sichtbaren Lichts
Tageslänge
Tomorrow will be .
, % of the Moon is Illuminated

Heutige Rekorde

State Highs State Lows

Community

WunderPhotos

Upload Photos

1,817,741 Fotos hochgeladen!

WunderBlogs® & News

Nearby

Luftqualität

  Luftqualität LQ Index Schadstoff
Not available.

Schneehöhe

Station Depth Höhe

Erdbebenaktivität

Stadt Distance Mag. Time & Date
Minimum magnitude displayed is 2.5.

küstennahe Wassertemperaturen

Ort Temperatur

Stations

Wetterstationen in der Umgebung

Stationsstandort Temp. Windchill Taupunkt Feuchtigkeit Wind Precip. Höhe Aktualisiert Art